Time;durP1;ratioP1;P1;durP2;ratioP2;P2;SDS_P1;SDS_P2;PMS_P1;PMS_P2;Temp;Humidity;BMP_temperature;BMP_pressure;BME280_temperature;BME280_humidity;BME280_pressure;Samples;Min_cycle;Max_cycle;Signal;HPM_P1;HPM_P2
2021/07/06 05:01:28;;;;;;;10.45;9.50;;;;;;;23.63;70.70;94529.69;5672349;23;20061;-74
2021/07/06 05:03:54;;;;;;;9.18;8.50;;;;;;;23.60;71.46;94530.22;4926822;29;20035;-74
2021/07/06 05:06:20;;;;;;;9.60;8.50;;;;;;;23.72;70.56;94534.47;4916244;29;20036;-74
2021/07/06 05:08:46;;;;;;;10.20;8.27;;;;;;;24.85;66.82;94538.44;4914664;29;20092;-74
2021/07/06 05:11:12;;;;;;;8.43;7.75;;;;;;;22.88;71.73;94539.97;4933110;29;20513;-74
2021/07/06 05:13:37;;;;;;;9.45;8.75;;;;;;;25.46;65.77;94543.53;4930086;29;20083;-74
2021/07/06 05:16:03;;;;;;;10.57;8.30;;;;;;;26.31;61.59;94552.03;4931694;29;20058;-73
2021/07/06 05:18:29;;;;;;;12.93;8.50;;;;;;;26.54;59.93;94548.66;4915282;29;20027;-74
2021/07/06 05:20:55;;;;;;;9.68;8.73;;;;;;;28.19;55.50;94552.28;4930605;29;20032;-73
2021/07/06 05:23:21;;;;;;;8.38;7.57;;;;;;;26.34;59.21;94559.44;4931412;29;20040;-74
2021/07/06 05:25:46;;;;;;;9.05;8.43;;;;;;;29.40;52.47;94560.84;4914440;29;20031;-73
2021/07/06 05:28:11;;;;;;;11.23;8.25;;;;;;;27.86;54.30;94562.06;4915658;29;20027;-73
2021/07/06 05:30:37;;;;;;;9.52;8.82;;;;;;;29.45;51.92;94566.06;4930020;29;20401;-73
2021/07/06 05:33:03;;;;;;;9.43;8.27;;;;;;;29.59;51.34;94569.53;4930685;29;20044;-74
2021/07/06 05:35:28;;;;;;;8.95;8.35;;;;;;;31.13;47.75;94574.50;4898566;29;20035;-74
2021/07/06 05:37:53;;;;;;;8.68;7.97;;;;;;;29.90;50.02;94574.22;4930942;29;20038;-74
2021/07/06 05:40:19;;;;;;;9.10;7.78;;;;;;;30.23;50.08;94570.28;4932278;29;20028;-73
2021/07/06 05:42:44;;;;;;;9.43;8.65;;;;;;;28.78;53.23;94578.25;4931422;29;20034;-73
2021/07/06 05:45:10;;;;;;;9.80;9.00;;;;;;;28.71;52.46;94581.28;4932057;29;20034;-73
2021/07/06 05:47:38;;;;;;;9.45;8.60;;;;;;;30.45;48.56;94581.00;4929679;29;20134;-74
2021/07/06 05:50:04;;;;;;;8.88;8.20;;;;;;;30.97;47.63;94576.00;4931163;29;20051;-73
2021/07/06 05:52:30;;;;;;;8.98;8.32;;;;;;;30.93;48.94;94569.63;4945448;29;20032;-73
2021/07/06 05:54:55;;;;;;;9.45;8.65;;;;;;;30.31;50.34;94574.91;4946903;29;20049;-74
2021/07/06 05:57:29;;;;;;;9.13;8.43;;;;;;;30.44;49.52;94579.41;4930304;29;20024;-73
2021/07/06 05:59:59;;;;;;;8.93;7.95;;;;;;;31.45;48.07;94571.47;4944777;29;20023;-73
2021/07/06 06:02:24;;;;;;;8.98;8.27;;;;;;;32.62;45.30;94569.59;4930408;29;20047;-73
2021/07/06 06:04:49;;;;;;;8.70;7.93;;;;;;;30.81;48.33;94570.22;4927773;29;20573;-76
2021/07/06 06:07:15;;;;;;;8.23;7.45;;;;;;;32.37;46.20;94576.50;4929732;29;20064;-73
2021/07/06 06:09:40;;;;;;;9.43;8.75;;;;;;;31.95;46.46;94576.50;4943785;28;20031;-73
2021/07/06 06:12:06;;;;;;;8.32;7.63;;;;;;;32.54;43.98;94573.03;4942275;28;20032;-73
2021/07/06 06:14:32;;;;;;;8.60;8.00;;;;;;;32.93;43.91;94579.28;4935483;28;20042;-73
2021/07/06 06:16:57;;;;;;;9.68;8.88;;;;;;;30.18;50.36;94581.09;4923953;28;20078;-74
2021/07/06 06:19:22;;;;;;;9.20;8.50;;;;;;;32.66;44.78;94578.56;4939507;28;20031;-74
2021/07/06 06:21:48;;;;;;;8.88;8.05;;;;;;;30.36;48.39;94580.13;4942697;28;20042;-73
2021/07/06 06:24:13;;;;;;;10.20;9.50;;;;;;;31.31;47.04;94576.94;4948585;28;20035;-73
2021/07/06 06:26:39;;;;;;;10.30;9.43;;;;;;;32.97;43.19;94572.97;4943391;29;20027;-73
2021/07/06 06:29:04;;;;;;;10.55;9.75;;;;;;;29.62;49.48;94571.59;4913527;29;20039;-73
2021/07/06 06:31:30;;;;;;;10.00;9.13;;;;;;;31.86;45.91;94571.88;4927647;29;20031;-73
2021/07/06 06:33:55;;;;;;;9.85;9.15;;;;;;;32.70;45.54;94568.78;4913126;29;20102;-75
2021/07/06 06:36:21;;;;;;;11.05;9.95;;;;;;;33.93;41.99;94569.56;4944471;29;20031;-73
2021/07/06 06:38:46;;;;;;;12.65;9.88;;;;;;;32.68;43.98;94573.69;4946766;29;20031;-75
2021/07/06 06:41:12;;;;;;;11.45;10.40;;;;;;;33.83;41.15;94567.25;4949889;28;20028;-74
2021/07/06 06:43:39;;;;;;;10.52;9.73;;;;;;;29.68;51.66;94570.41;4946038;29;20035;-74
2021/07/06 06:46:05;;;;;;;12.00;10.07;;;;;;;26.61;60.19;94571.19;4930823;28;20020;-74
2021/07/06 06:48:31;;;;;;;10.95;9.95;;;;;;;27.37;59.13;94564.28;4937333;28;20042;-74
2021/07/06 06:50:57;;;;;;;11.38;9.95;;;;;;;28.75;56.88;94568.16;4939528;28;20543;-74
2021/07/06 06:53:22;;;;;;;10.80;10.00;;;;;;;27.70;59.74;94564.16;4941000;28;20031;-73
2021/07/06 06:55:48;;;;;;;10.60;9.80;;;;;;;27.89;58.41;94564.16;4936334;29;20627;-77
2021/07/06 06:58:13;;;;;;;9.27;8.50;;;;;;;32.25;47.97;94567.53;4926077;29;20031;-74
2021/07/06 07:00:39;;;;;;;10.73;9.75;;;;;;;33.54;44.57;94562.66;4938657;28;20425;-77
2021/07/06 07:03:04;;;;;;;11.02;10.02;;;;;;;35.50;40.56;94565.84;4927031;28;20047;-73
2021/07/06 07:05:30;;;;;;;10.63;9.82;;;;;;;33.83;44.30;94562.66;4941828;29;20028;-73
2021/07/06 07:07:58;;;;;;;10.85;10.00;;;;;;;33.12;45.63;94559.06;4942569;28;20031;-73
2021/07/06 07:10:25;;;;;;;11.40;10.27;;;;;;;29.52;55.62;94561.13;4947816;29;20500;-73
2021/07/06 07:12:53;;;;;;;10.98;10.20;;;;;;;28.25;57.19;94561.78;4931649;29;20047;-72
2021/07/06 07:15:18;;;;;;;11.20;10.40;;;;;;;28.50;56.89;94566.69;4949086;28;20409;-75
2021/07/06 07:17:44;;;;;;;12.07;10.85;;;;;;;27.57;59.55;94561.41;4955652;28;20019;-74
2021/07/06 07:20:11;;;;;;;13.32;12.15;;;;;;;25.96;64.90;94569.00;4928888;29;20031;-74
2021/07/06 07:22:37;;;;;;;12.23;10.98;;;;;;;27.89;59.92;94556.16;4926934;29;20111;-73
2021/07/06 07:25:03;;;;;;;11.60;10.68;;;;;;;28.29;57.23;94560.09;4928565;29;20379;-73
2021/07/06 07:27:28;;;;;;;11.90;10.88;;;;;;;28.26;57.96;94558.81;4926683;29;20031;-70
2021/07/06 07:29:56;;;;;;;13.70;12.40;;;;;;;27.41;60.70;94552.00;4928845;29;20486;-73
2021/07/06 07:32:21;;;;;;;10.20;9.40;;;;;;;27.69;61.92;94551.91;4929195;29;20038;-72
2021/07/06 07:34:47;;;;;;;11.30;10.40;;;;;;;28.68;57.61;94560.53;4927242;29;20028;-70
2021/07/06 07:37:13;;;;;;;11.77;10.50;;;;;;;27.62;60.49;94553.34;4940543;28;20020;-75
2021/07/06 07:39:38;;;;;;;12.32;11.10;;;;;;;27.86;58.15;94554.06;4944862;29;20035;-74
2021/07/06 07:42:05;;;;;;;10.73;9.73;;;;;;;27.96;59.71;94540.63;4936133;29;20517;-73
2021/07/06 07:44:30;;;;;;;11.10;10.02;;;;;;;27.53;58.93;94547.88;4945242;28;20038;-78
2021/07/06 07:46:56;;;;;;;11.77;10.80;;;;;;;27.31;59.44;94544.94;4932104;29;20027;-73
2021/07/06 07:49:22;;;;;;;10.85;8.38;;;;;;;28.82;56.93;94554.44;4930468;29;20045;-74
2021/07/06 07:51:47;;;;;;;9.68;8.98;;;;;;;28.56;57.15;94554.88;4947246;29;20508;-74
2021/07/06 07:54:13;;;;;;;9.23;8.30;;;;;;;28.15;57.48;94551.28;4931339;29;20401;-75
2021/07/06 07:56:41;;;;;;;10.65;8.98;;;;;;;28.65;56.04;94544.31;4930245;29;20039;-73
2021/07/06 07:59:07;;;;;;;10.00;9.10;;;;;;;28.42;56.14;94551.34;4951593;29;20023;-74
2021/07/06 08:01:32;;;;;;;8.07;7.28;;;;;;;29.26;55.98;94552.03;4949934;28;20501;-74
2021/07/06 08:03:58;;;;;;;7.22;6.72;;;;;;;28.79;51.93;94550.50;4949886;29;20037;-73
2021/07/06 08:06:23;;;;;;;7.68;7.00;;;;;;;29.02;54.01;94548.75;4948770;29;20023;-73
2021/07/06 08:08:49;;;;;;;7.05;6.40;;;;;;;27.93;56.24;94554.50;4948407;28;20456;-76
2021/07/06 08:11:14;;;;;;;6.40;5.80;;;;;;;28.83;50.29;94542.72;4949453;29;20481;-74
2021/07/06 08:13:40;;;;;;;6.82;6.13;;;;;;;28.34;54.59;94548.56;4952178;28;20086;-77
2021/07/06 08:16:05;;;;;;;7.00;6.35;;;;;;;28.42;53.64;94545.22;4918188;29;20586;-75
2021/07/06 08:18:31;;;;;;;7.05;6.45;;;;;;;27.88;55.53;94540.47;4931804;29;20038;-75
2021/07/06 08:20:56;;;;;;;7.13;6.32;;;;;;;28.65;53.46;94545.13;4949589;29;20401;-75
2021/07/06 08:36:08;;;;;;;6.97;6.38;;;;;;;28.68;54.56;94549.88;5126823;27;20570;-75
2021/07/06 08:38:38;;;;;;;6.90;6.40;;;;;;;28.53;54.42;94536.00;5108370;28;20073;-77
2021/07/06 08:41:03;;;;;;;7.30;6.70;;;;;;;28.10;53.58;94541.47;5108227;28;20039;-74
2021/07/06 08:43:29;;;;;;;7.25;6.55;;;;;;;28.76;55.98;94548.41;5108499;28;20124;-78
2021/07/06 08:45:54;;;;;;;6.90;6.20;;;;;;;28.34;54.77;94544.03;5141664;27;20031;-75
2021/07/06 08:48:19;;;;;;;7.05;6.45;;;;;;;27.66;52.77;94544.50;5091808;28;20032;-75
2021/07/06 08:50:45;;;;;;;8.48;6.80;;;;;;;27.38;53.92;94540.06;5090208;28;20019;-73
2021/07/06 08:53:11;;;;;;;7.35;5.72;;;;;;;28.49;53.76;94545.66;5091448;28;20035;-77
2021/07/06 08:55:36;;;;;;;5.90;5.50;;;;;;;28.52;54.29;94539.72;5125523;28;20082;-75
2021/07/06 08:58:02;;;;;;;6.55;6.00;;;;;;;28.62;52.07;94540.34;5090315;27;20027;-75
2021/07/06 09:00:30;;;;;;;6.85;6.25;;;;;;;28.88;55.56;94543.41;5102658;28;20035;-79
2021/07/06 09:03:07;;;;;;;5.97;5.57;;;;;;;28.65;51.79;94547.81;5071120;28;20109;-79
2021/07/06 09:05:33;;;;;;;5.68;4.93;;;;;;;28.62;54.43;94543.03;5076967;28;20031;-81
2021/07/06 09:07:58;;;;;;;7.45;5.45;;;;;;;28.53;54.25;94552.00;5072796;28;20088;-78
2021/07/06 09:10:26;;;;;;;7.55;5.93;;;;;;;29.29;52.00;94546.09;5108000;28;20023;-79
2021/07/06 09:12:51;;;;;;;8.10;5.38;;;;;;;29.34;53.78;94546.00;5141782;27;20041;-81
2021/07/06 09:15:22;;;;;;;5.60;5.07;;;;;;;29.10;51.35;94540.03;5107603;28;20051;-83
2021/07/06 09:18:08;;;;;;;6.57;4.68;;;;;;;28.18;50.40;94540.03;5075200;28;20028;-83
2021/07/06 09:20:33;;;;;;;5.82;5.30;;;;;;;28.86;50.54;94544.78;5106509;28;20015;-77
2021/07/06 09:23:18;;;;;;;5.88;5.35;;;;;;;27.54;53.29;94543.34;5087629;28;20035;-78
2021/07/06 09:25:44;;;;;;;5.53;5.13;;;;;;;28.73;51.73;94541.81;5097164;28;20424;-80
2021/07/06 09:28:23;;;;;;;5.68;5.28;;;;;;;28.66;51.00;94541.41;5086863;28;20022;-76
2021/07/06 09:30:48;;;;;;;6.25;5.25;;;;;;;28.03;51.55;94542.91;5104305;28;20027;-76
2021/07/06 09:33:24;;;;;;;7.40;4.55;;;;;;;28.89;51.55;94546.84;5103182;28;20027;-78
2021/07/06 09:35:50;;;;;;;5.13;4.63;;;;;;;28.80;50.70;94540.63;5080459;28;20036;-80
2021/07/06 09:38:15;;;;;;;4.47;4.18;;;;;;;28.69;51.61;94540.00;5055783;28;20047;-83
2021/07/06 09:40:42;;;;;;;5.10;4.60;;;;;;;28.76;51.69;94535.09;5090866;28;20613;-83
2021/07/06 09:43:14;;;;;;;6.13;4.97;;;;;;;28.29;50.15;94533.44;5072988;28;20028;-82
2021/07/06 09:45:40;;;;;;;7.85;4.55;;;;;;;28.46;52.23;94523.03;5091290;28;20036;-82
2021/07/06 09:48:06;;;;;;;5.68;5.18;;;;;;;29.27;51.72;94524.25;5057121;28;20028;-82
2021/07/06 09:50:32;;;;;;;5.18;4.78;;;;;;;28.62;50.14;94529.69;5089432;28;20024;-82
2021/07/06 09:52:57;;;;;;;5.43;5.03;;;;;;;29.07;50.51;94530.75;5056936;27;20528;-81
2021/07/06 09:55:30;;;;;;;5.30;4.90;;;;;;;28.57;50.74;94531.66;5084407;28;20032;-78
2021/07/06 09:57:56;;;;;;;5.07;4.78;;;;;;;27.46;51.68;94528.78;5093781;28;20027;-78
2021/07/06 10:00:21;;;;;;;5.05;4.65;;;;;;;28.88;51.63;94531.94;5075731;28;20056;-83
2021/07/06 10:02:47;;;;;;;5.90;5.18;;;;;;;29.14;49.84;94533.03;5073313;28;20081;-77
2021/07/06 10:05:16;;;;;;;4.95;4.55;;;;;;;29.60;48.20;94527.59;5072608;28;20024;-79
2021/07/06 10:07:42;;;;;;;5.43;5.03;;;;;;;28.77;50.90;94521.44;5056167;28;20020;-83
2021/07/06 10:10:10;;;;;;;5.60;4.40;;;;;;;29.35;49.70;94515.53;5075822;28;20019;-81
2021/07/06 10:12:36;;;;;;;5.00;4.70;;;;;;;29.17;51.50;94511.88;5080191;28;20035;-78
2021/07/06 10:15:03;;;;;;;6.25;5.28;;;;;;;28.71;52.91;94511.16;5100270;28;20038;-80
2021/07/06 10:17:28;;;;;;;5.03;4.68;;;;;;;29.18;50.09;94510.00;5055714;28;20050;-75
2021/07/06 10:19:54;;;;;;;5.40;4.85;;;;;;;29.19;49.74;94503.56;5092917;28;20071;-76
2021/07/06 10:22:19;;;;;;;5.85;4.60;;;;;;;29.52;50.48;94507.72;5108161;28;20019;-76
2021/07/06 10:24:46;;;;;;;4.78;4.07;;;;;;;29.12;49.08;94505.88;5109110;28;20031;-75
2021/07/06 10:27:22;;;;;;;4.78;4.47;;;;;;;29.14;46.70;94498.34;5091621;28;20047;-76
2021/07/06 10:29:48;;;;;;;10.52;4.65;;;;;;;28.89;49.08;94506.84;5071905;28;20028;-74
2021/07/06 10:32:39;;;;;;;6.07;4.50;;;;;;;28.50;49.71;94499.25;5072459;28;20036;-76
2021/07/06 10:35:09;;;;;;;4.70;4.40;;;;;;;29.59;50.52;94502.75;5091074;28;20050;-79
2021/07/06 10:37:35;;;;;;;6.20;4.60;;;;;;;29.60;49.16;94503.56;5052633;28;20031;-80
2021/07/06 10:40:20;;;;;;;4.75;4.35;;;;;;;29.13;49.13;94492.22;5105124;28;20419;-79
2021/07/06 10:42:49;;;;;;;23.20;5.32;;;;;;;29.49;47.38;94500.31;5090718;28;20026;-76
2021/07/06 10:45:32;;;;;;;4.18;3.88;;;;;;;29.25;48.27;94497.84;5075357;28;20392;-81
2021/07/06 10:47:58;;;;;;;26.58;5.60;;;;;;;29.79;47.44;94494.31;5099364;28;20032;-81
2021/07/06 10:50:30;;;;;;;9.02;4.25;;;;;;;29.87;45.67;94500.03;5084811;28;20092;-83
2021/07/06 10:53:18;;;;;;;4.72;3.88;;;;;;;28.93;48.17;94497.16;5087843;28;20477;-78
2021/07/06 10:55:45;;;;;;;9.05;4.38;;;;;;;29.27;47.02;94493.03;5107896;28;20115;-79
2021/07/06 10:58:10;;;;;;;4.03;3.72;;;;;;;28.46;48.36;94484.94;5103570;27;20039;-79
2021/07/06 11:00:43;;;;;;;3.80;3.60;;;;;;;28.97;46.01;94488.25;5069562;28;20036;-79
2021/07/06 11:03:15;;;;;;;3.78;3.50;;;;;;;29.95;47.12;94485.97;5087363;28;20041;-82
2021/07/06 11:05:41;;;;;;;12.65;4.75;;;;;;;29.61;46.80;94492.56;5101277;28;20538;-78
2021/07/06 11:08:07;;;;;;;8.60;4.40;;;;;;;28.93;49.07;94497.94;5068885;28;20031;-80
2021/07/06 11:10:36;;;;;;;5.80;4.00;;;;;;;28.02;49.72;94493.38;5070480;28;20035;-79
2021/07/06 11:13:15;;;;;;;4.82;4.32;;;;;;;28.16;50.70;94491.56;5095732;28;20471;-79
2021/07/06 11:15:40;;;;;;;;;;;;;;;28.24;51.87;94488.25;5070833;28;20110;-79
2021/07/06 11:18:09;;;;;;;13.40;4.77;;;;;;;28.54;50.66;94489.59;5087105;28;20373;-79
2021/07/06 11:20:41;;;;;;;;;;;;;;;29.17;48.20;94484.41;5069509;28;20673;-79
2021/07/06 11:23:09;;;;;;;31.70;5.97;;;;;;;29.59;48.32;94485.94;5088577;28;20015;-79
2021/07/06 11:25:34;;;;;;;5.90;4.07;;;;;;;29.06;47.29;94483.81;5052375;28;20024;-79
2021/07/06 11:28:11;;;;;;;4.10;3.80;;;;;;;29.63;47.40;94482.38;5088994;28;20476;-79
2021/07/06 11:30:40;;;;;;;4.15;3.72;;;;;;;29.87;48.44;94484.00;5069714;28;20028;-82
2021/07/06 11:33:11;;;;;;;3.45;3.22;;;;;;;29.53;43.17;94481.81;5086818;28;20103;-79
2021/07/06 11:35:53;;;;;;;3.40;3.10;;;;;;;29.30;46.42;94486.31;5051211;28;20418;-80
2021/07/06 11:38:26;;;;;;;3.28;2.97;;;;;;;29.22;46.70;94494.97;5068182;28;20075;-78
2021/07/06 11:40:58;;;;;;;2.75;2.55;;;;;;;28.73;45.14;94493.81;5090278;28;20470;-81
2021/07/06 11:43:23;;;;;;;4.95;2.72;;;;;;;28.88;47.57;94500.72;5076064;28;20073;-82
2021/07/06 11:45:57;;;;;;;3.20;2.90;;;;;;;28.19;48.13;94493.66;5099301;28;20434;-80
2021/07/06 11:48:24;;;;;;;3.72;2.42;;;;;;;28.40;46.46;94478.91;5069746;28;20028;-80
2021/07/06 11:50:50;;;;;;;4.45;2.65;;;;;;;27.68;48.18;94489.09;5084013;28;20031;-84
2021/07/06 11:53:23;;;;;;;2.97;2.67;;;;;;;27.64;47.98;94485.44;5068759;28;20020;-81
2021/07/06 11:55:49;;;;;;;2.95;2.65;;;;;;;27.54;50.35;94488.25;5086265;28;20043;-79
2021/07/06 11:58:19;;;;;;;3.20;2.50;;;;;;;27.09;48.92;94488.81;5088568;28;20016;-79
2021/07/06 12:00:45;;;;;;;3.20;2.90;;;;;;;27.18;48.42;94484.44;5087663;28;20031;-81
2021/07/06 12:03:14;;;;;;;2.90;2.58;;;;;;;27.30;49.73;94490.13;5087350;28;20591;-78
2021/07/06 12:05:39;;;;;;;;;;;;;;;27.15;48.52;94490.31;5103654;28;20039;-79
2021/07/06 12:08:16;;;;;;;3.03;2.70;;;;;;;27.92;45.81;94482.88;5106014;28;19939;-79
2021/07/06 12:11:10;;;;;;;2.22;2.03;;;;;;;27.66;47.38;94488.59;5089127;28;20273;-82
2021/07/06 12:13:39;;;;;;;6.05;2.55;;;;;;;27.04;46.82;94481.66;5104031;28;20131;-81
2021/07/06 12:16:07;;;;;;;2.50;2.30;;;;;;;27.83;46.95;94477.44;5105283;28;20450;-79
2021/07/06 12:18:34;;;;;;;3.03;2.40;;;;;;;28.45;44.46;94478.03;5104332;28;20030;-79
2021/07/06 12:21:00;;;;;;;2.20;2.10;;;;;;;28.31;44.40;94472.69;5105891;28;20423;-79
2021/07/06 12:23:26;;;;;;;2.50;2.30;;;;;;;29.19;44.39;94479.53;5105777;28;20040;-78
2021/07/06 12:25:53;;;;;;;3.20;3.00;;;;;;;29.69;46.24;94467.81;5086971;28;20027;-81
2021/07/06 12:28:19;;;;;;;4.18;3.30;;;;;;;29.48;45.25;94477.34;5088469;28;20635;-79
2021/07/06 12:31:04;;;;;;;3.97;2.92;;;;;;;29.32;46.14;94475.31;5104311;28;20028;-77
2021/07/06 12:33:29;;;;;;;3.25;2.63;;;;;;;29.20;44.95;94465.13;5104345;28;20084;-85
2021/07/06 12:35:55;;;;;;;3.00;2.70;;;;;;;29.54;43.15;94470.81;5070941;28;20636;-78
2021/07/06 12:38:27;;;;;;;2.58;2.42;;;;;;;28.83;43.07;94473.34;5087545;28;20062;-79
2021/07/06 12:40:52;;;;;;;2.20;2.08;;;;;;;28.99;43.07;94474.66;5105421;28;20143;-78
2021/07/06 12:43:21;;;;;;;2.00;1.90;;;;;;;28.79;42.23;94470.50;5104495;28;20442;-82
2021/07/06 12:45:46;;;;;;;2.05;1.95;;;;;;;28.82;41.66;94453.09;5088463;28;20412;-80
2021/07/06 12:48:23;;;;;;;2.28;2.10;;;;;;;28.94;42.83;94469.38;5086997;28;20035;-79
2021/07/06 12:50:48;;;;;;;2.42;2.13;;;;;;;28.40;45.83;94468.25;5072153;28;20062;-78
2021/07/06 12:53:14;;;;;;;2.47;2.28;;;;;;;28.49;44.67;94469.16;5106780;28;20032;-78
2021/07/06 12:55:39;;;;;;;2.83;2.20;;;;;;;28.08;44.53;94463.72;5087292;28;20096;-78
2021/07/06 12:58:05;;;;;;;3.45;2.60;;;;;;;27.63;46.13;94454.56;5105346;28;20577;-79
2021/07/06 13:00:31;;;;;;;2.10;2.00;;;;;;;27.53;45.87;94459.22;5104828;28;20023;-79
2021/07/06 13:03:13;;;;;;;3.38;2.55;;;;;;;28.12;44.92;94470.06;5087459;28;20097;-79
2021/07/06 13:05:46;;;;;;;2.80;2.50;;;;;;;27.77;45.63;94474.03;5104538;28;20488;-78
2021/07/06 13:08:20;;;;;;;2.80;2.50;;;;;;;27.49;44.85;94467.00;5088235;28;20028;-81
2021/07/06 13:10:46;;;;;;;2.35;2.25;;;;;;;27.63;46.22;94467.88;5105727;28;20028;-77
2021/07/06 13:13:12;;;;;;;2.75;2.50;;;;;;;27.62;47.01;94466.28;5108270;28;20065;-77
2021/07/06 13:15:43;;;;;;;2.70;2.50;;;;;;;27.97;44.06;94459.59;5109824;28;20085;-81
2021/07/06 13:18:10;;;;;;;3.45;2.78;;;;;;;28.45;44.62;94460.16;5106752;28;20027;-80
2021/07/06 13:20:45;;;;;;;2.42;2.22;;;;;;;28.50;43.86;94459.28;5108865;28;20174;-80
2021/07/06 13:23:11;;;;;;;2.80;2.60;;;;;;;28.61;45.19;94463.31;5091651;28;20069;-77
2021/07/06 13:25:37;;;;;;;3.08;2.88;;;;;;;28.60;44.23;94469.75;5091153;28;20085;-79
2021/07/06 13:28:03;;;;;;;2.42;2.25;;;;;;;28.39;42.87;94466.66;5108625;28;20451;-77
2021/07/06 13:30:36;;;;;;;2.30;2.20;;;;;;;28.72;45.07;94468.22;5085476;28;20046;-79
2021/07/06 13:33:04;;;;;;;2.13;1.92;;;;;;;28.88;44.32;94474.03;5069856;28;20085;-76
2021/07/06 13:35:30;;;;;;;2.60;2.40;;;;;;;28.35;43.59;94471.00;5085743;28;20036;-78
2021/07/06 13:37:55;;;;;;;3.33;2.67;;;;;;;27.97;45.54;94464.13;5070316;28;20043;-82
2021/07/06 13:40:21;;;;;;;4.00;2.42;;;;;;;28.24;44.68;94469.59;5070538;28;20032;-81
2021/07/06 13:42:46;;;;;;;2.70;2.50;;;;;;;28.72;44.37;94476.22;5070669;28;20032;-79
2021/07/06 13:45:16;;;;;;;2.40;2.30;;;;;;;28.75;44.92;94472.16;5069945;28;20085;-78
2021/07/06 13:47:42;;;;;;;2.45;2.35;;;;;;;28.55;43.73;94478.63;5070208;28;20020;-79
2021/07/06 13:50:09;;;;;;;2.70;2.17;;;;;;;28.54;43.10;94479.72;5383716;23;20440;-79
2021/07/06 13:52:34;;;;;;;3.45;2.53;;;;;;;28.28;43.28;94475.94;5057256;28;20498;-80
2021/07/06 13:55:01;;;;;;;2.65;2.40;;;;;;;28.72;44.20;94473.56;5049210;28;20075;-82
2021/07/06 13:57:27;;;;;;;2.60;2.40;;;;;;;28.60;43.56;94470.56;5049623;28;20033;-79
2021/07/06 13:59:52;;;;;;;3.05;1.90;;;;;;;28.61;45.03;94456.13;5050730;28;20049;-80
2021/07/06 14:02:18;;;;;;;2.95;2.50;;;;;;;28.89;44.91;94469.50;5047631;28;20025;-79
2021/07/06 14:04:45;;;;;;;5.13;2.38;;;;;;;28.45;44.44;94473.47;5048849;28;20033;-78
2021/07/06 14:07:11;;;;;;;2.95;2.42;;;;;;;28.10;45.72;94480.22;5049795;28;20554;-79
2021/07/06 14:09:36;;;;;;;2.55;2.35;;;;;;;27.87;45.26;94472.31;5049566;28;20024;-80
2021/07/06 14:12:02;;;;;;;3.10;2.53;;;;;;;27.36;47.03;94450.91;5032226;28;20075;-80
2021/07/06 14:14:27;;;;;;;3.30;2.70;;;;;;;27.64;45.73;94472.13;5047978;28;20063;-80
2021/07/06 14:16:53;;;;;;;4.13;2.80;;;;;;;27.45;45.72;94471.34;5048922;28;20041;-81
2021/07/06 14:19:19;;;;;;;4.63;2.70;;;;;;;27.46;46.53;94467.56;5030060;28;20427;-80
2021/07/06 14:21:44;;;;;;;4.35;2.60;;;;;;;27.55;45.84;94465.06;5050424;28;20358;-80
2021/07/06 14:24:10;;;;;;;2.60;2.40;;;;;;;27.33;46.86;94444.31;5048371;28;20086;-84
2021/07/06 14:26:35;;;;;;;3.03;2.55;;;;;;;27.14;47.99;94467.44;5050182;28;20033;-79
2021/07/06 14:29:01;;;;;;;4.43;2.67;;;;;;;27.65;46.91;94467.56;5049341;28;20085;-79
2021/07/06 14:31:27;;;;;;;2.92;2.45;;;;;;;27.52;47.08;94463.75;5049204;28;20426;-79
2021/07/06 14:33:53;;;;;;;3.33;2.95;;;;;;;27.40;47.54;94466.03;5048401;28;20036;-80
2021/07/06 14:36:19;;;;;;;2.80;2.60;;;;;;;27.75;46.69;94472.75;5047122;28;20462;-83
2021/07/06 14:38:44;;;;;;;2.75;2.55;;;;;;;27.99;47.32;94472.66;5048411;28;20063;-78
2021/07/06 14:41:10;;;;;;;2.85;2.47;;;;;;;27.98;47.01;94474.53;5047893;28;20033;-81
2021/07/06 14:43:35;;;;;;;2.70;2.50;;;;;;;28.16;47.01;94467.59;5048870;28;20136;-78
2021/07/06 14:46:01;;;;;;;3.03;2.70;;;;;;;28.00;47.09;94469.69;5049302;28;20549;-81
2021/07/06 14:48:26;;;;;;;4.45;2.58;;;;;;;27.94;46.76;94468.19;5049220;28;20462;-77
2021/07/06 14:50:52;;;;;;;3.25;2.95;;;;;;;27.44;47.68;94464.41;5048599;28;20083;-80
2021/07/06 14:53:17;;;;;;;3.17;2.60;;;;;;;27.58;46.93;94459.94;5046802;28;20540;-81
2021/07/06 14:55:43;;;;;;;2.70;2.50;;;;;;;27.54;47.67;94474.94;5047099;28;20033;-78
2021/07/06 14:58:09;;;;;;;2.70;2.50;;;;;;;27.30;48.63;94446.75;5046588;28;20036;-79
2021/07/06 15:00:35;;;;;;;3.95;2.35;;;;;;;27.75;47.18;94462.88;5030766;28;20025;-78
2021/07/06 15:03:01;;;;;;;2.90;2.70;;;;;;;27.89;47.86;94478.13;5046726;28;20504;-79
2021/07/06 15:05:27;;;;;;;2.88;2.67;;;;;;;27.18;46.66;94457.81;5046370;28;20088;-82
2021/07/06 15:07:53;;;;;;;2.67;2.50;;;;;;;26.95;48.64;94463.97;5046218;28;20021;-80
2021/07/06 15:10:19;;;;;;;3.83;3.15;;;;;;;27.39;48.01;94469.78;5045327;28;20036;-80
2021/07/06 15:12:50;;;;;;;3.60;3.30;;;;;;;27.71;48.21;94469.88;5048251;28;20028;-77
2021/07/06 15:15:15;;;;;;;3.22;3.00;;;;;;;27.98;48.44;94473.72;5046148;28;20104;-77
2021/07/06 15:17:41;;;;;;;5.18;2.72;;;;;;;27.84;47.20;94464.91;5047991;28;20029;-77
2021/07/06 15:20:07;;;;;;;3.05;2.20;;;;;;;27.75;47.90;94468.22;5046085;28;20025;-76
2021/07/06 15:22:32;;;;;;;2.72;2.53;;;;;;;27.73;46.94;94470.38;5051925;28;20058;-79
2021/07/06 15:24:57;;;;;;;4.53;2.38;;;;;;;27.36;46.28;94466.88;5058094;28;20047;-83
2021/07/06 15:27:23;;;;;;;4.15;2.55;;;;;;;27.03;47.72;94469.47;5056968;28;20038;-83
2021/07/06 15:29:48;;;;;;;4.07;2.70;;;;;;;27.05;48.27;94471.81;5058321;28;20060;-78
2021/07/06 15:32:14;;;;;;;2.53;2.42;;;;;;;27.15;48.62;94472.50;5046304;28;20102;-77
2021/07/06 15:34:40;;;;;;;2.65;2.38;;;;;;;27.09;47.69;94478.16;5054108;28;20589;-80
2021/07/06 15:37:06;;;;;;;3.75;2.80;;;;;;;26.80;48.28;94461.47;5055686;28;20398;-77
2021/07/06 15:39:31;;;;;;;2.65;2.38;;;;;;;26.86;48.45;94479.75;5054277;28;20032;-74
2021/07/06 15:41:57;;;;;;;3.97;2.58;;;;;;;26.98;48.81;94474.03;5057766;28;20028;-76
2021/07/06 15:44:24;;;;;;;2.72;2.40;;;;;;;27.25;47.74;94479.56;5055268;28;20085;-80
2021/07/06 15:46:50;;;;;;;4.18;2.60;;;;;;;27.27;48.92;94466.75;5059109;28;20109;-78
2021/07/06 15:49:15;;;;;;;3.10;2.67;;;;;;;27.36;48.53;94475.66;5064518;28;20477;-78
2021/07/06 15:51:41;;;;;;;3.10;2.90;;;;;;;27.35;50.25;94479.44;5065043;28;20059;-80
2021/07/06 15:54:06;;;;;;;2.92;2.70;;;;;;;27.22;49.44;94482.78;5073126;28;20032;-78
2021/07/06 15:56:32;;;;;;;3.33;2.95;;;;;;;27.21;50.37;94479.34;5068582;28;20424;-82
2021/07/06 15:58:57;;;;;;;6.55;3.10;;;;;;;27.12;50.95;94489.03;5061124;28;20021;-79
2021/07/06 16:01:23;;;;;;;2.65;2.53;;;;;;;27.06;52.28;94474.22;5051373;28;20033;-77
2021/07/06 16:03:48;;;;;;;3.22;2.90;;;;;;;27.17;50.74;94488.16;5055377;28;20025;-78
2021/07/06 16:06:14;;;;;;;3.15;2.90;;;;;;;27.14;50.92;94483.41;5063567;28;20071;-78
2021/07/06 16:08:39;;;;;;;2.95;2.75;;;;;;;27.06;50.89;94487.50;5066708;28;20024;-78
2021/07/06 16:11:05;;;;;;;3.53;3.22;;;;;;;27.00;50.56;94490.50;5053614;28;20024;-79
2021/07/06 16:13:30;;;;;;;3.97;3.30;;;;;;;26.85;50.89;94490.66;5047451;28;20036;-80
2021/07/06 16:15:55;;;;;;;3.75;3.30;;;;;;;26.90;51.22;94498.59;5053630;28;20021;-80
2021/07/06 16:18:21;;;;;;;4.05;3.20;;;;;;;26.90;52.45;94498.59;5067391;28;20029;-78
2021/07/06 16:20:46;;;;;;;3.17;2.85;;;;;;;26.84;51.11;94502.41;5065137;28;20036;-80
2021/07/06 16:23:12;;;;;;;2.90;2.70;;;;;;;26.78;51.27;94508.81;5049327;28;20021;-79
2021/07/06 16:25:37;;;;;;;3.30;2.67;;;;;;;26.71;51.54;94507.25;5044194;28;20035;-78
2021/07/06 16:28:04;;;;;;;3.70;3.40;;;;;;;26.62;50.43;94506.28;5046545;28;20052;-80
2021/07/06 16:30:30;;;;;;;2.95;2.75;;;;;;;26.62;51.32;94508.16;5046246;28;20490;-81
2021/07/06 16:32:55;;;;;;;2.90;2.70;;;;;;;26.53;52.10;94505.31;5047610;28;20039;-79
2021/07/06 16:35:21;;;;;;;3.75;3.22;;;;;;;26.41;52.61;94502.25;5065312;28;20613;-76
2021/07/06 16:37:49;;;;;;;3.22;3.03;;;;;;;26.44;52.41;94507.03;5063505;28;20033;-77
2021/07/06 16:40:15;;;;;;;2.83;2.63;;;;;;;26.35;52.66;94519.31;5065408;28;20024;-80
2021/07/06 16:42:41;;;;;;;3.08;2.88;;;;;;;26.25;53.59;94521.28;5063757;28;20241;-73
2021/07/06 16:45:08;;;;;;;5.40;2.80;;;;;;;26.17;53.24;94525.31;5064981;28;20102;-73